Time;durP1;ratioP1;P1;durP2;ratioP2;P2;SDS_P1;SDS_P2;PMS_P1;PMS_P2;Temp;Humidity;BMP_temperature;BMP_pressure;BME280_temperature;BME280_humidity;BME280_pressure;Samples;Min_cycle;Max_cycle;Signal;HPM_P1;HPM_P2
2023/03/01 00:00:16;;;;;;;9.05;4.03;;;1.10;99.90;;;0.79;83.79;102305.59;5162569;28;20122;-69
2023/03/01 00:02:48;;;;;;;8.73;4.15;;;1.10;99.90;;;0.76;83.66;102295.91;5150940;28;20075;-69
2023/03/01 00:05:20;;;;;;;10.50;3.60;;;1.10;99.90;;;0.76;84.26;102298.47;5151552;28;20488;-69
2023/03/01 00:07:54;;;;;;;9.13;3.90;;;1.10;99.90;;;0.76;84.32;102305.28;5151316;28;20043;-69
2023/03/01 00:10:27;;;;;;;8.85;3.92;;;1.10;99.90;;;0.73;84.44;102311.03;5152487;28;20522;-70
2023/03/01 00:12:59;;;;;;;5.82;3.75;;;1.10;99.90;;;0.73;83.84;102303.31;5143863;28;20550;-69
2023/03/01 00:15:31;;;;;;;10.15;4.15;;;1.00;99.90;;;0.74;83.76;102305.13;5152147;28;20038;-69
2023/03/01 00:18:03;;;;;;;8.93;4.25;;;1.00;99.90;;;0.74;83.35;102315.41;5158073;28;20057;-69
2023/03/01 00:20:36;;;;;;;7.80;4.05;;;1.10;99.90;;;0.75;83.45;102309.50;5159411;28;20516;-68
2023/03/01 00:23:08;;;;;;;12.07;4.50;;;1.10;99.90;;;0.71;82.99;102315.09;5157590;28;20038;-69
2023/03/01 00:25:44;;;;;;;10.50;4.90;;;1.00;99.90;;;0.68;83.55;102314.78;5162747;28;20225;-69
2023/03/01 00:28:16;;;;;;;9.65;4.45;;;1.00;99.90;;;0.63;84.17;102313.44;5162388;28;20438;-69
2023/03/01 00:30:48;;;;;;;9.18;4.85;;;1.00;99.90;;;0.62;83.98;102311.63;5144457;28;20631;-68
2023/03/01 00:33:20;;;;;;;9.43;3.90;;;1.00;99.90;;;0.62;84.12;102311.63;5155497;28;20511;-70
2023/03/01 00:35:53;;;;;;;10.30;4.40;;;0.90;99.90;;;0.64;83.96;102311.78;5133085;28;20050;-69
2023/03/01 00:38:26;;;;;;;6.95;3.85;;;1.00;99.90;;;0.64;83.71;102304.06;5134878;28;20047;-67
2023/03/01 00:41:06;;;;;;;7.22;3.53;;;1.00;99.90;;;0.63;84.03;102312.53;5139293;28;20043;-68
2023/03/01 00:43:38;;;;;;;8.85;3.53;;;0.90;99.90;;;0.59;84.09;102305.28;5158393;28;20045;-69
2023/03/01 00:46:13;;;;;;;12.60;4.45;;;0.90;99.90;;;0.55;84.72;102306.66;5143603;28;20049;-69
2023/03/01 00:48:47;;;;;;;8.35;3.85;;;0.90;99.90;;;0.52;85.01;102303.75;5138130;28;20042;-69
2023/03/01 00:51:22;;;;;;;11.20;4.70;;;0.90;99.90;;;0.49;85.06;102304.38;5136715;28;20662;-68
2023/03/01 00:53:57;;;;;;;6.78;3.15;;;0.80;99.90;;;0.48;85.37;102299.09;5138901;28;20046;-69
2023/03/01 00:56:31;;;;;;;7.35;3.67;;;0.80;99.90;;;0.45;85.24;102301.34;5137485;28;20165;-68
2023/03/01 00:59:03;;;;;;;6.95;3.20;;;0.80;99.90;;;0.41;85.35;102295.03;5148433;28;20141;-69
2023/03/01 01:01:36;;;;;;;9.23;3.80;;;0.80;99.90;;;0.39;86.07;102300.75;5161211;28;20049;-68
2023/03/01 01:04:10;;;;;;;8.25;3.70;;;0.70;99.90;;;0.37;85.82;102302.25;5155040;28;20056;-69
2023/03/01 01:06:46;;;;;;;7.38;3.78;;;0.70;99.90;;;0.34;85.55;102297.75;5139283;28;20125;-68
2023/03/01 01:09:18;;;;;;;;;;;0.70;99.90;;;0.33;86.09;102292.47;5133564;28;20047;-68
2023/03/01 01:11:52;;;;;;;7.65;3.45;;;0.70;99.90;;;0.30;85.87;102290.47;5301144;23;20024;-70
2023/03/01 01:14:25;;;;;;;8.45;3.55;;;0.70;99.90;;;0.28;86.38;102291.09;5156697;28;20458;-72
2023/03/01 01:16:57;;;;;;;7.25;3.70;;;0.60;99.90;;;0.25;86.17;102292.56;5159215;28;20303;-71
2023/03/01 01:19:29;;;;;;;8.52;4.10;;;0.60;99.90;;;0.23;86.58;102291.53;5171722;28;20112;-72
2023/03/01 01:22:01;;;;;;;8.45;3.47;;;0.60;99.90;;;0.22;87.02;102283.69;5163318;28;20057;-70
2023/03/01 01:24:34;;;;;;;9.32;4.18;;;0.60;99.90;;;0.19;87.13;102276.56;5145900;28;20426;-71
2023/03/01 01:27:07;;;;;;;6.57;3.40;;;0.60;99.90;;;0.16;87.48;102266.03;5153669;28;20046;-72
2023/03/01 01:29:39;;;;;;;10.07;4.35;;;0.50;99.90;;;0.13;87.29;102260.59;5146466;28;20400;-71
2023/03/01 01:32:11;;;;;;;9.55;4.50;;;0.50;99.90;;;0.10;87.39;102255.16;5140956;28;20439;-71
2023/03/01 01:34:43;;;;;;;7.55;3.40;;;0.40;99.90;;;0.05;88.14;102252.88;5157672;28;20455;-72
2023/03/01 01:37:15;;;;;;;9.13;3.50;;;0.40;99.90;;;0.01;88.32;102263.59;5134073;28;20051;-70
2023/03/01 01:39:48;;;;;;;8.10;3.42;;;0.40;99.90;;;-0.04;88.30;102256.34;5153175;28;20049;-71
2023/03/01 01:42:21;;;;;;;8.20;3.83;;;0.30;99.90;;;-0.08;88.08;102253.31;5144594;28;20046;-72
2023/03/01 01:45:28;;;;;;;8.40;3.80;;;0.30;99.90;;;-0.12;88.58;102251.22;5145230;28;20042;-71
2023/03/01 01:48:05;;;;;;;7.82;3.42;;;0.30;99.90;;;-0.16;89.00;102238.84;5158930;28;20138;-70
2023/03/01 01:50:41;;;;;;;9.00;3.47;;;0.20;99.90;;;-0.19;89.36;102238.53;5161270;28;20057;-72
2023/03/01 01:53:17;;;;;;;6.10;3.58;;;0.20;99.90;;;-0.23;89.25;102239.88;5155395;28;20129;-71
2023/03/01 01:55:56;;;;;;;8.63;3.80;;;0.20;99.90;;;-0.28;89.41;102236.84;5163837;28;20070;-73
2023/03/01 01:58:31;;;;;;;7.78;3.42;;;0.10;99.90;;;-0.31;90.07;102236.53;5145838;28;20047;-72
2023/03/01 02:01:04;;;;;;;8.15;3.70;;;0.10;99.90;;;-0.34;89.70;102241.34;5146043;28;20039;-70
2023/03/01 02:03:41;;;;;;;8.18;3.30;;;0.10;99.90;;;-0.37;89.92;102243.63;5162610;28;20589;-68
2023/03/01 02:06:21;;;;;;;9.65;3.83;;;0.00;99.90;;;-0.40;90.05;102230.47;5163142;28;20042;-66
2023/03/01 02:08:54;;;;;;;9.20;4.20;;;0.00;99.90;;;-0.42;90.27;102234.53;5146071;28;20506;-66
2023/03/01 02:11:28;;;;;;;8.75;3.70;;;0.00;99.90;;;-0.44;90.49;102236.06;5144444;28;20047;-68
2023/03/01 02:14:02;;;;;;;7.93;4.93;;;0.00;99.90;;;-0.47;90.62;102230.59;5144825;28;20414;-67
2023/03/01 02:16:34;;;;;;;9.55;3.70;;;-0.10;99.90;;;-0.50;91.07;102240.56;5142395;28;20135;-66
2023/03/01 02:19:08;;;;;;;8.88;3.90;;;-0.10;99.90;;;-0.52;91.10;102238.56;5162069;28;20047;-67
2023/03/01 02:21:54;;;;;;;6.63;3.22;;;-0.10;99.90;;;-0.50;91.06;102226.84;5161519;28;20137;-67
2023/03/01 02:24:37;;;;;;;9.98;4.15;;;-0.10;99.90;;;-0.48;91.36;102216.00;5165515;28;20050;-68
2023/03/01 02:27:11;;;;;;;8.63;3.95;;;-0.10;99.90;;;-0.46;91.29;102214.47;5166779;28;20045;-70
2023/03/01 02:29:45;;;;;;;8.75;3.90;;;-0.10;99.90;;;-0.45;90.85;102213.75;5165470;28;20026;-68
2023/03/01 02:32:24;;;;;;;8.50;3.83;;;-0.10;99.90;;;-0.45;90.99;102213.75;5166289;28;20050;-66
2023/03/01 02:34:57;;;;;;;9.82;3.95;;;0.00;99.90;;;-0.48;90.53;102228.81;5159033;28;20049;-67
2023/03/01 02:37:29;;;;;;;8.30;3.97;;;-0.10;99.90;;;-0.50;90.49;102221.72;5147961;28;20407;-66
2023/03/01 02:40:11;;;;;;;7.25;3.45;;;-0.10;99.90;;;-0.59;90.42;102209.81;5147958;28;20050;-68
2023/03/01 02:42:52;;;;;;;9.20;3.42;;;-0.20;99.90;;;-0.63;90.89;102222.13;5147698;28;20053;-68
2023/03/01 02:45:27;;;;;;;8.13;3.50;;;-0.20;99.90;;;-0.63;91.26;102217.00;5145525;28;20050;-70
2023/03/01 02:47:59;;;;;;;8.43;3.03;;;-0.20;99.90;;;-0.65;91.22;102215.97;5165824;28;20680;-67
2023/03/01 02:50:54;;;;;;;7.50;3.63;;;-0.30;99.90;;;-0.69;91.31;102212.16;5147427;28;20053;-68
2023/03/01 02:53:36;;;;;;;7.35;3.33;;;-0.30;99.90;;;-0.75;91.37;102220.88;5165196;28;20069;-69
2023/03/01 02:56:12;;;;;;;7.70;3.10;;;-0.30;99.90;;;-0.79;91.52;102218.75;5148016;28;20049;-68
2023/03/01 02:58:50;;;;;;;8.48;3.55;;;-0.40;99.90;;;-0.85;91.51;102213.88;5147656;28;20117;-68
2023/03/01 03:01:36;;;;;;;9.02;3.90;;;-0.40;99.90;;;-0.90;91.74;102200.63;5144003;28;20051;-67
2023/03/01 03:04:16;;;;;;;5.60;3.08;;;-0.50;99.90;;;-0.93;92.20;102210.53;5160036;28;20092;-66
2023/03/01 03:06:51;;;;;;;8.15;3.30;;;-0.50;99.90;;;-0.96;92.37;102210.25;5149269;28;20069;-68
2023/03/01 03:09:23;;;;;;;6.90;3.50;;;-0.60;99.90;;;-1.01;92.13;102210.50;5164638;28;20039;-68
2023/03/01 03:11:56;;;;;;;7.10;3.55;;;-0.60;99.90;;;-1.06;92.42;102212.59;5165220;28;20038;-69
2023/03/01 03:14:29;;;;;;;6.95;2.92;;;-0.60;99.90;;;-1.09;92.69;102199.50;5146881;28;20051;-68
2023/03/01 03:17:06;;;;;;;8.20;4.03;;;-0.70;99.90;;;-1.12;92.75;102200.06;5147468;28;20557;-67
2023/03/01 03:19:38;;;;;;;9.85;4.10;;;-0.70;99.90;;;-1.15;92.88;102191.19;5147030;28;20537;-68
2023/03/01 03:22:10;;;;;;;7.43;3.30;;;-0.70;99.90;;;-1.16;92.98;102195.41;5143748;28;20047;-67
2023/03/01 03:24:42;;;;;;;7.53;3.30;;;-0.70;99.90;;;-1.15;93.16;102186.06;5160593;28;20054;-70
2023/03/01 03:27:14;;;;;;;7.50;3.38;;;-0.70;99.90;;;-1.18;93.55;102191.75;5152655;28;20043;-68
2023/03/01 03:29:46;;;;;;;8.00;4.35;;;-0.80;99.90;;;-1.21;93.70;102185.44;5163084;28;20487;-68
2023/03/01 03:32:20;;;;;;;7.20;3.22;;;-0.80;99.90;;;-1.26;93.86;102181.47;5164731;28;20041;-69
2023/03/01 03:34:52;;;;;;;8.65;3.55;;;-0.80;99.90;;;-1.30;94.26;102184.50;5145465;28;20049;-68
2023/03/01 03:40:19;;;;;;;;;;;-0.90;99.90;;;-1.36;94.68;102189.88;5139805;28;20061;-68
2023/03/01 03:42:51;;;;;;;6.57;3.05;;;-0.90;99.90;;;-1.40;94.76;102180.94;5164446;28;19926;-67
2023/03/01 03:45:25;;;;;;;8.60;4.20;;;-0.90;99.90;;;-1.42;94.93;102182.44;5146957;28;20422;-67
2023/03/01 03:47:58;;;;;;;8.32;3.53;;;-1.00;99.90;;;-1.44;94.69;102186.47;5157005;28;20116;-70
2023/03/01 03:50:30;;;;;;;10.60;4.13;;;-1.00;99.90;;;-1.46;94.77;102187.97;5163986;28;20044;-68
2023/03/01 03:53:05;;;;;;;7.30;3.55;;;-1.00;99.90;;;-1.48;94.96;102192.03;5164268;28;20038;-69
2023/03/01 03:55:38;;;;;;;8.80;3.60;;;-1.00;99.90;;;-1.50;95.09;102196.09;5146858;28;20054;-67
2023/03/01 03:58:12;;;;;;;10.25;3.85;;;-1.00;99.90;;;-1.53;95.12;102180.41;5148610;28;20060;-71
2023/03/01 04:00:47;;;;;;;7.97;3.70;;;-1.10;99.90;;;-1.55;95.15;102174.25;5147467;28;21083;-67
2023/03/01 04:03:22;;;;;;;9.38;3.95;;;-1.10;99.90;;;-1.58;95.32;102166.25;5165200;28;20069;-69
2023/03/01 04:05:54;;;;;;;10.80;3.47;;;-1.10;99.90;;;-1.57;95.37;102168.03;5164914;28;20049;-69
2023/03/01 04:08:27;;;;;;;9.75;3.80;;;-1.10;99.90;;;-1.56;95.45;102163.88;5164181;28;20506;-68
2023/03/01 04:11:25;;;;;;;8.55;3.80;;;-1.10;99.90;;;-1.58;95.67;102149.97;5165057;28;20053;-69
2023/03/01 04:13:59;;;;;;;8.55;4.20;;;-1.10;99.90;;;-1.61;95.71;102153.16;5165192;28;20415;-69
2023/03/01 04:16:31;;;;;;;;;;;-1.10;99.90;;;-1.64;95.82;102156.25;5144603;28;20058;-67
2023/03/01 04:19:06;;;;;;;6.80;3.13;;;-1.20;99.90;;;-1.66;95.75;102146.63;5163772;28;19921;-68
2023/03/01 04:21:38;;;;;;;8.32;3.83;;;-1.20;99.90;;;-1.68;95.59;102163.47;5163945;28;20058;-69
2023/03/01 04:24:12;;;;;;;9.60;3.80;;;-1.20;99.90;;;-1.69;95.81;102161.66;5163494;28;20034;-69
2023/03/01 04:26:44;;;;;;;9.00;3.28;;;-1.30;99.90;;;-1.71;95.92;102163.13;5163350;28;20050;-68
2023/03/01 04:29:16;;;;;;;7.60;3.53;;;-1.20;99.90;;;-1.72;95.96;102157.13;5163637;28;20129;-68
2023/03/01 04:31:49;;;;;;;10.07;3.92;;;-1.30;99.90;;;-1.72;95.98;102156.22;5160656;28;20043;-68
2023/03/01 04:34:23;;;;;;;8.05;3.42;;;-1.20;99.90;;;-1.75;96.11;102155.91;5158840;28;20039;-68
2023/03/01 04:36:55;;;;;;;12.50;3.97;;;-1.30;99.90;;;-1.78;96.29;102165.78;5163295;28;20038;-68
2023/03/01 04:39:28;;;;;;;8.77;3.70;;;-1.30;99.90;;;-1.80;96.21;102164.75;5163044;28;20125;-68
2023/03/01 04:42:00;;;;;;;8.63;4.22;;;-1.40;99.90;;;-1.83;96.24;102161.84;5163498;28;20075;-68
2023/03/01 04:44:33;;;;;;;10.45;3.40;;;-1.40;99.90;;;-1.85;96.64;102155.66;5145754;28;20058;-68
2023/03/01 04:47:05;;;;;;;8.50;3.55;;;-1.40;99.90;;;-1.87;96.75;102159.72;5154861;28;20514;-68
2023/03/01 04:49:39;;;;;;;7.53;3.53;;;-1.40;99.90;;;-1.91;96.67;102158.47;5162999;28;20054;-69
2023/03/01 04:52:11;;;;;;;8.52;3.88;;;-1.40;99.90;;;-1.93;96.96;102154.88;5146400;28;20396;-69
2023/03/01 04:54:43;;;;;;;9.07;4.03;;;-1.40;99.90;;;-1.95;96.84;102147.03;5145399;28;20046;-69
2023/03/01 04:57:15;;;;;;;8.50;3.33;;;-1.50;99.90;;;-1.96;96.89;102135.03;5145846;28;20042;-68
2023/03/01 04:59:47;;;;;;;9.07;3.83;;;-1.50;99.90;;;-1.98;96.94;102141.59;5162644;28;20046;-70
2023/03/01 05:02:19;;;;;;;8.00;3.40;;;-1.50;99.90;;;-2.00;96.52;102153.31;5162901;28;20054;-69
2023/03/01 05:04:57;;;;;;;8.10;3.50;;;-1.50;99.90;;;-2.02;96.60;102149.69;5163072;28;20050;-69
2023/03/01 05:07:29;;;;;;;7.32;3.30;;;-1.50;99.90;;;-2.07;96.69;102150.84;5145870;28;20042;-68
2023/03/01 05:10:01;;;;;;;7.47;3.20;;;-1.60;99.90;;;-2.10;96.80;102142.84;5141167;28;20039;-68
2023/03/01 05:12:33;;;;;;;9.40;3.72;;;-1.60;99.90;;;-2.10;96.86;102149.59;5158357;28;20039;-68
2023/03/01 05:15:07;;;;;;;7.22;3.22;;;-1.60;99.90;;;-2.12;96.58;102149.44;5155972;28;20038;-68
2023/03/01 05:17:39;;;;;;;8.77;3.38;;;-1.60;99.90;;;-2.16;96.91;102152.41;5162580;28;20046;-67
2023/03/01 05:20:13;;;;;;;8.52;3.80;;;-1.70;99.90;;;-2.18;97.25;102151.34;5145395;28;20803;-67
2023/03/01 05:22:45;;;;;;;9.20;4.32;;;-1.70;99.90;;;-2.20;97.45;102157.97;5162230;28;20050;-68
2023/03/01 05:25:18;;;;;;;9.93;3.10;;;-1.70;99.90;;;-2.21;97.71;102156.16;5163128;28;20034;-69
2023/03/01 05:27:50;;;;;;;7.88;3.95;;;-1.70;99.90;;;-2.22;97.89;102156.84;5162413;28;20152;-68
2023/03/01 05:30:22;;;;;;;10.60;4.03;;;-1.70;99.90;;;-2.23;98.03;102155.06;5162702;28;20042;-67
2023/03/01 05:32:56;;;;;;;10.00;4.00;;;-1.70;99.90;;;-2.26;98.06;102152.19;5154473;28;20097;-67
2023/03/01 05:35:32;;;;;;;8.32;4.03;;;-1.70;99.90;;;-2.27;98.11;102152.94;5145243;28;20128;-67
2023/03/01 05:38:04;;;;;;;8.18;3.72;;;-1.80;99.90;;;-2.29;98.28;102151.84;5155371;28;20125;-67
2023/03/01 05:40:37;;;;;;;10.00;3.97;;;-1.80;99.90;;;-2.30;98.49;102150.03;5161970;28;20046;-68
2023/03/01 05:43:09;;;;;;;7.40;3.55;;;-1.80;99.90;;;-2.32;98.80;102159.19;5162699;28;20495;-69
2023/03/01 05:45:43;;;;;;;8.57;4.07;;;-1.80;99.90;;;-2.33;98.92;102165.03;5162626;28;20042;-67
2023/03/01 05:48:15;;;;;;;7.40;3.70;;;-1.80;99.90;;;-2.33;99.21;102165.03;5162890;28;20043;-68
2023/03/01 05:50:49;;;;;;;11.13;4.10;;;-1.80;99.90;;;-2.35;99.23;102152.09;5162099;28;20038;-68
2023/03/01 05:53:21;;;;;;;10.63;5.15;;;-1.80;99.90;;;-2.34;99.41;102160.69;5162243;28;20500;-70
2023/03/01 05:55:53;;;;;;;11.80;5.30;;;-1.80;99.90;;;-2.34;99.15;102161.59;5162202;28;20046;-70
2023/03/01 05:58:27;;;;;;;10.52;5.00;;;-1.80;99.90;;;-2.36;99.02;102159.59;5164782;28;20137;-69
2023/03/01 06:00:59;;;;;;;12.13;5.13;;;-1.90;99.90;;;-2.36;99.20;102159.59;5165924;28;20518;-68
2023/03/01 06:03:31;;;;;;;12.05;4.65;;;-1.80;99.90;;;-2.35;98.99;102161.41;5148855;28;20068;-70
2023/03/01 06:06:06;;;;;;;14.15;5.32;;;-1.90;99.90;;;-2.37;99.25;102157.78;5166792;28;20121;-69
2023/03/01 06:08:38;;;;;;;11.05;4.57;;;-1.90;99.90;;;-2.36;99.29;102151.94;5148666;28;20045;-69
2023/03/01 06:11:10;;;;;;;8.82;3.70;;;-1.90;99.90;;;-2.36;99.43;102146.81;5166335;28;20030;-70
2023/03/01 06:13:43;;;;;;;12.20;5.15;;;-1.90;99.90;;;-2.37;99.19;102143.38;5158215;28;20412;-70
2023/03/01 06:16:15;;;;;;;11.75;4.30;;;-1.90;99.90;;;-2.38;99.11;102135.53;5166519;28;20526;-67
2023/03/01 06:18:48;;;;;;;11.48;3.97;;;-1.90;99.90;;;-2.39;98.85;102138.84;5166211;28;20034;-67
2023/03/01 06:21:21;;;;;;;7.38;3.80;;;-1.90;99.90;;;-2.42;98.85;102135.94;5166267;28;20043;-69
2023/03/01 06:23:54;;;;;;;8.07;4.10;;;-1.90;99.90;;;-2.40;98.62;102142.16;5165802;28;20411;-68
2023/03/01 06:26:26;;;;;;;6.55;3.17;;;-1.90;99.90;;;-2.41;98.81;102142.84;5148589;28;20061;-67
2023/03/01 06:28:58;;;;;;;7.85;3.60;;;-1.90;99.90;;;-2.42;98.72;102143.59;5165860;28;20050;-67
2023/03/01 06:31:30;;;;;;;6.13;3.17;;;-1.90;99.90;;;-2.42;98.79;102148.72;5148241;28;20058;-67
2023/03/01 06:34:03;;;;;;;11.88;4.20;;;-1.90;99.90;;;-2.42;98.81;102151.28;5158216;28;20045;-67
2023/03/01 06:36:36;;;;;;;9.02;4.10;;;-1.90;99.90;;;-2.42;98.58;102138.50;5148210;28;20050;-69
2023/03/01 06:39:08;;;;;;;10.45;4.00;;;-1.90;99.90;;;-2.42;98.84;102149.63;5166058;28;20491;-68
2023/03/01 06:41:40;;;;;;;11.13;3.85;;;-1.90;99.90;;;-2.43;98.93;102144.34;5165628;28;20070;-68
2023/03/01 06:44:13;;;;;;;13.32;4.13;;;-2.00;99.90;;;-2.42;99.02;102144.50;5165869;28;20533;-67
2023/03/01 06:46:45;;;;;;;10.65;4.00;;;-1.90;99.90;;;-2.42;99.15;102136.84;5147896;28;20502;-69
2023/03/01 06:49:17;;;;;;;12.40;4.22;;;-1.90;99.90;;;-2.40;99.19;102137.94;5165404;28;20058;-70
2023/03/01 06:51:51;;;;;;;8.10;3.88;;;-1.90;99.90;;;-2.39;99.12;102144.84;5165382;28;20042;-70
2023/03/01 06:54:23;;;;;;;10.95;4.63;;;-1.90;99.90;;;-2.38;98.91;102149.22;5165499;28;20049;-69
2023/03/01 06:56:55;;;;;;;10.30;4.32;;;-1.90;99.90;;;-2.34;98.99;102147.91;5165510;28;20046;-67
2023/03/01 06:59:28;;;;;;;11.35;3.97;;;-1.90;99.90;;;-2.30;99.41;102145.81;5165289;28;20053;-67
2023/03/01 07:02:00;;;;;;;13.00;4.55;;;-1.80;99.90;;;-2.19;99.63;102149.53;5165323;28;20046;-70
2023/03/01 07:04:32;;;;;;;10.10;3.90;;;-1.70;99.90;;;-2.00;99.57;102158.44;5165245;28;20047;-64
2023/03/01 07:07:06;;;;;;;10.77;4.72;;;-1.60;99.90;;;-1.42;100.00;102144.09;5161331;28;20137;-62
2023/03/01 07:09:38;;;;;;;11.57;4.97;;;-1.20;99.90;;;-0.14;98.90;102143.38;5160754;28;20043;-61
2023/03/01 07:12:10;;;;;;;10.63;4.18;;;-0.50;99.90;;;1.42;94.66;102139.47;5247545;23;20042;-58
2023/03/01 07:14:42;;;;;;;11.38;4.82;;;0.70;99.90;;;2.90;88.83;102135.69;5151199;28;20299;-59
2023/03/01 07:17:14;;;;;;;13.98;5.85;;;1.90;99.90;;;4.17;82.57;102132.56;5144544;28;20137;-59
2023/03/01 07:19:46;;;;;;;18.75;6.78;;;3.10;99.90;;;5.31;76.32;102133.94;5132435;28;20035;-59
2023/03/01 07:22:20;;;;;;;21.42;7.60;;;4.20;99.90;;;6.40;71.26;102122.31;5132250;28;20047;-58
2023/03/01 07:24:52;;;;;;;17.35;6.60;;;5.20;97.40;;;7.43;67.45;102129.53;5132452;28;20047;-60
2023/03/01 07:27:24;;;;;;;15.05;5.93;;;6.20;94.10;;;8.28;63.98;102129.19;5131257;28;20054;-59
2023/03/01 07:29:56;;;;;;;10.48;5.57;;;7.00;90.70;;;8.87;61.52;102130.47;5140837;28;20050;-59
2023/03/01 07:32:28;;;;;;;10.98;5.65;;;7.60;86.10;;;9.33;59.71;102128.09;5131062;28;20049;-59
2023/03/01 07:35:00;;;;;;;11.30;5.22;;;8.10;82.10;;;9.71;58.44;102129.47;5143405;28;20043;-59
2023/03/01 07:37:33;;;;;;;12.30;5.25;;;8.50;79.20;;;10.05;56.98;102133.28;5136150;28;20053;-59
2023/03/01 07:40:08;;;;;;;12.13;5.15;;;8.80;76.40;;;10.21;55.82;102129.84;5135544;28;20050;-59
2023/03/01 07:42:40;;;;;;;10.25;5.07;;;9.00;74.00;;;9.66;55.70;102133.53;5135130;28;20042;-59
2023/03/01 07:45:13;;;;;;;10.82;4.97;;;8.80;72.60;;;8.64;56.95;102134.19;5132359;28;20051;-59
2023/03/01 07:47:45;;;;;;;12.35;5.50;;;8.10;72.70;;;7.59;58.82;102132.41;5131993;28;20035;-59
2023/03/01 07:50:17;;;;;;;16.85;6.18;;;7.40;74.20;;;6.65;61.03;102131.84;5136739;28;20115;-59
2023/03/01 07:52:51;;;;;;;17.60;7.13;;;6.60;75.80;;;6.03;62.66;102131.66;5143560;28;20570;-58
2023/03/01 07:55:23;;;;;;;15.02;6.75;;;6.00;78.00;;;5.57;63.96;102127.28;5127369;28;20465;-57
2023/03/01 07:57:55;;;;;;;14.73;6.28;;;5.50;80.10;;;5.04;65.97;102114.63;5144287;28;20061;-58
2023/03/01 08:00:27;;;;;;;12.80;5.55;;;5.10;82.30;;;4.55;75.07;102110.75;5134576;28;20043;-59
2023/03/01 08:03:01;;;;;;;11.52;4.78;;;4.60;96.30;;;4.35;73.80;102118.56;5130796;28;20046;-59
2023/03/01 08:05:33;;;;;;;13.32;5.60;;;4.40;94.50;;;4.07;72.81;102123.19;5143090;28;20116;-59
2023/03/01 08:08:07;;;;;;;11.50;5.30;;;4.10;93.80;;;4.03;73.15;102114.28;5135306;28;20074;-57
2023/03/01 08:10:39;;;;;;;11.75;5.40;;;4.00;94.10;;;4.48;73.65;102115.28;5142838;28;20058;-58
2023/03/01 08:13:11;;;;;;;13.90;6.00;;;4.10;95.00;;;5.55;72.23;102124.59;5135540;28;20050;-58
2023/03/01 08:15:43;;;;;;;13.20;5.30;;;4.60;95.30;;;6.88;69.54;102112.75;5135493;28;20130;-58
2023/03/01 08:18:15;;;;;;;12.95;6.07;;;5.40;94.70;;;8.07;65.61;102100.09;5138565;28;20039;-59
2023/03/01 08:20:48;;;;;;;11.63;5.20;;;6.30;92.60;;;9.10;62.41;102112.78;5139891;28;20043;-58
2023/03/01 08:23:21;;;;;;;15.90;6.35;;;7.10;90.40;;;10.00;60.07;102112.97;5135422;28;20047;-58
2023/03/01 08:25:53;;;;;;;13.65;6.60;;;8.00;86.40;;;10.79;57.15;102114.00;5124815;28;20063;-57
2023/03/01 08:28:25;;;;;;;14.45;6.35;;;8.70;80.80;;;11.37;55.49;102117.13;5125985;28;20102;-58
2023/03/01 08:30:57;;;;;;;12.43;6.10;;;9.40;77.30;;;11.86;53.84;102114.44;5142671;28;20047;-58
2023/03/01 08:33:30;;;;;;;12.93;6.00;;;9.90;74.00;;;12.21;52.54;102114.47;5137848;28;20058;-58
2023/03/01 08:36:07;;;;;;;12.73;5.30;;;10.30;71.30;;;12.27;51.74;102111.28;5141434;28;20101;-58
2023/03/01 08:38:40;;;;;;;12.43;6.03;;;10.50;69.20;;;12.42;51.17;102108.50;5142409;28;20145;-59
2023/03/01 08:41:12;;;;;;;13.13;6.13;;;10.70;67.80;;;12.62;50.87;102105.09;5125660;28;20038;-60
2023/03/01 08:43:44;;;;;;;11.73;5.93;;;10.90;66.80;;;12.78;50.26;102109.34;5142378;28;20051;-58
2023/03/01 08:46:16;;;;;;;12.68;5.70;;;11.10;65.90;;;12.68;50.13;102115.88;5142940;28;20085;-59
2023/03/01 08:48:48;;;;;;;12.57;6.13;;;11.10;65.10;;;12.63;50.50;102112.13;5134358;28;20047;-59
2023/03/01 08:51:22;;;;;;;14.15;6.80;;;11.10;65.10;;;12.70;49.88;102116.81;5142524;28;20403;-59
2023/03/01 08:53:55;;;;;;;11.43;6.72;;;11.30;64.80;;;12.81;49.74;102121.69;5140334;28;20431;-58
2023/03/01 08:56:27;;;;;;;12.50;5.93;;;11.40;63.80;;;12.75;49.84;102104.84;5114146;28;20090;-58
2023/03/01 08:59:00;;;;;;;11.50;5.45;;;11.40;63.80;;;12.72;50.00;102119.53;5138225;28;20118;-58
2023/03/01 09:01:32;;;;;;;11.90;5.78;;;11.50;63.70;;;12.59;49.90;102112.81;5137756;28;20039;-58
2023/03/01 09:04:04;;;;;;;11.77;6.00;;;11.60;63.00;;;12.44;49.93;102112.97;5142420;28;20211;-59
2023/03/01 09:06:37;;;;;;;10.73;5.60;;;11.50;62.80;;;12.14;50.01;102109.78;5135052;28;20055;-58
2023/03/01 09:09:16;;;;;;;10.35;5.55;;;11.50;62.40;;;11.65;50.96;102104.66;5142063;28;20047;-58
2023/03/01 09:11:49;;;;;;;11.45;6.43;;;11.20;62.30;;;11.16;52.00;102097.72;5141918;28;20050;-59
2023/03/01 09:14:21;;;;;;;14.90;6.00;;;10.80;63.30;;;10.73;52.74;102098.91;5136846;28;20496;-58
2023/03/01 09:16:54;;;;;;;11.82;6.72;;;10.50;63.80;;;10.17;52.01;102098.28;5138290;28;20412;-59
2023/03/01 09:19:26;;;;;;;12.68;5.78;;;10.10;62.60;;;9.66;52.91;102097.09;5131559;28;20042;-59
2023/03/01 09:21:58;;;;;;;12.48;5.82;;;9.70;63.20;;;9.19;53.53;102097.72;5139405;28;20487;-59
2023/03/01 09:24:31;;;;;;;13.32;6.40;;;9.30;64.60;;;8.81;53.99;102088.47;5124016;28;20047;-60
2023/03/01 09:27:08;;;;;;;14.20;6.00;;;8.90;64.10;;;8.66;55.10;102096.19;5137292;28;20046;-58
2023/03/01 09:29:40;;;;;;;12.02;5.85;;;8.70;65.20;;;8.48;55.12;102096.75;5133722;28;20053;-59
2023/03/01 09:32:12;;;;;;;12.75;6.40;;;8.60;65.80;;;8.36;55.70;102076.97;5122300;28;20448;-59
2023/03/01 09:37:35;;;;;;;12.30;6.53;;;8.30;65.70;;;7.96;56.14;102085.53;5122734;28;20346;-58
2023/03/01 09:40:15;;;;;;;16.30;7.15;;;8.00;66.50;;;7.54;56.50;102072.41;5141018;28;20047;-58
2023/03/01 09:42:54;;;;;;;13.88;6.55;;;7.90;66.70;;;7.45;57.47;102070.88;5132758;28;20043;-59
2023/03/01 09:45:31;;;;;;;13.55;6.07;;;7.70;67.40;;;7.34;57.74;102073.66;5135304;28;20043;-58
2023/03/01 09:48:08;;;;;;;13.80;6.45;;;7.60;67.70;;;6.99;58.74;102067.75;5127857;28;20051;-58
2023/03/01 09:50:43;;;;;;;13.93;6.32;;;7.30;68.50;;;7.11;59.11;102059.88;5131678;28;20042;-58
2023/03/01 09:53:18;;;;;;;14.63;6.85;;;7.30;69.40;;;7.00;58.71;102049.69;5141499;28;20046;-58
2023/03/01 09:56:00;;;;;;;12.60;6.18;;;7.30;68.80;;;6.84;59.77;102054.59;5113335;28;20074;-58
2023/03/01 09:58:51;;;;;;;14.70;6.55;;;7.10;70.00;;;7.04;59.92;102053.38;5124101;28;20556;-59
2023/03/01 10:01:34;;;;;;;11.90;6.00;;;7.20;70.60;;;7.26;59.00;102048.88;5131350;28;20079;-60
2023/03/01 10:04:27;;;;;;;11.77;6.00;;;7.40;69.90;;;7.39;58.80;102054.91;5110326;28;20046;-61
2023/03/01 10:07:21;;;;;;;12.13;6.03;;;7.40;69.50;;;7.50;58.91;102048.75;5141318;28;20411;-59
2023/03/01 10:09:53;;;;;;;11.95;5.18;;;7.50;69.80;;;7.73;58.68;102045.97;5141415;28;20054;-59
2023/03/01 10:12:41;;;;;;;11.35;5.28;;;7.70;69.80;;;8.08;58.39;102039.56;5141622;28;20039;-59
2023/03/01 10:15:19;;;;;;;11.80;5.82;;;7.90;69.80;;;8.29;56.93;102043.56;5137790;28;20039;-59
2023/03/01 10:17:57;;;;;;;11.05;5.90;;;8.10;68.50;;;8.23;56.32;102031.88;5137634;28;20046;-59
2023/03/01 10:20:44;;;;;;;14.15;6.50;;;8.20;67.60;;;8.09;56.84;102038.81;5129740;28;20500;-60
2023/03/01 10:23:17;;;;;;;12.70;6.03;;;8.10;67.80;;;7.82;56.50;102033.63;5126375;28;20039;-59
2023/03/01 10:26:10;;;;;;;13.68;6.90;;;8.00;67.40;;;7.54;57.96;102015.31;5133676;28;20424;-59
2023/03/01 10:28:54;;;;;;;12.93;6.28;;;7.80;68.20;;;7.70;57.97;102016.34;5141268;28;20061;-59
2023/03/01 10:31:36;;;;;;;12.10;5.07;;;7.80;68.50;;;7.84;57.11;102016.44;5134787;28;20043;-58
2023/03/01 10:34:15;;;;;;;13.70;5.85;;;7.90;68.10;;;8.14;57.44;102012.28;5138027;28;20156;-59
2023/03/01 10:36:51;;;;;;;12.13;5.78;;;8.10;68.40;;;8.08;56.60;102013.59;5129966;28;20046;-59
2023/03/01 10:39:25;;;;;;;12.93;5.82;;;8.10;67.40;;;8.14;56.23;102014.88;5133595;28;20055;-59
2023/03/01 10:42:02;;;;;;;13.05;5.85;;;8.20;67.20;;;8.17;56.72;102003.81;5140315;28;20070;-59
2023/03/01 10:44:45;;;;;;;13.43;5.80;;;8.20;67.30;;;8.25;60.10;102005.19;5126392;28;20161;-57
2023/03/01 10:47:23;;;;;;;11.32;5.93;;;8.30;71.80;;;8.40;57.37;102008.78;5137178;28;20066;-58
2023/03/01 10:50:00;;;;;;;12.15;5.43;;;8.40;68.40;;;8.54;56.51;102008.75;5144490;28;20046;-59